sensor_id;sensor_type;location;lat;lon;timestamp;P1;durP1;ratioP1;P2;durP2;ratioP2
72728;SDS011;60843;52.062;4.508;2024-01-30T00:02:21;10.20;;;5.32;;
72728;SDS011;60843;52.062;4.508;2024-01-30T00:04:46;13.18;;;5.32;;
72728;SDS011;60843;52.062;4.508;2024-01-30T00:07:12;12.00;;;5.68;;
72728;SDS011;60843;52.062;4.508;2024-01-30T00:09:38;15.60;;;6.18;;
72728;SDS011;60843;52.062;4.508;2024-01-30T00:12:05;13.57;;;5.68;;
72728;SDS011;60843;52.062;4.508;2024-01-30T00:14:31;11.40;;;5.35;;
72728;SDS011;60843;52.062;4.508;2024-01-30T00:16:57;14.13;;;6.25;;
72728;SDS011;60843;52.062;4.508;2024-01-30T00:19:22;11.98;;;5.50;;
72728;SDS011;60843;52.062;4.508;2024-01-30T00:21:48;9.55;;;5.38;;
72728;SDS011;60843;52.062;4.508;2024-01-30T00:24:14;12.00;;;5.30;;
72728;SDS011;60843;52.062;4.508;2024-01-30T00:26:39;12.43;;;5.53;;
72728;SDS011;60843;52.062;4.508;2024-01-30T00:29:05;10.43;;;5.07;;
72728;SDS011;60843;52.062;4.508;2024-01-30T00:31:31;12.25;;;5.80;;
72728;SDS011;60843;52.062;4.508;2024-01-30T00:33:56;13.35;;;5.32;;
72728;SDS011;60843;52.062;4.508;2024-01-30T00:36:22;10.25;;;5.13;;
72728;SDS011;60843;52.062;4.508;2024-01-30T00:38:48;12.13;;;4.97;;
72728;SDS011;60843;52.062;4.508;2024-01-30T00:41:13;7.53;;;4.07;;
72728;SDS011;60843;52.062;4.508;2024-01-30T00:43:39;7.95;;;4.80;;
72728;SDS011;60843;52.062;4.508;2024-01-30T00:46:05;8.10;;;4.65;;
72728;SDS011;60843;52.062;4.508;2024-01-30T00:48:30;8.25;;;4.63;;
72728;SDS011;60843;52.062;4.508;2024-01-30T00:50:55;9.07;;;4.68;;
72728;SDS011;60843;52.062;4.508;2024-01-30T00:53:21;7.90;;;4.47;;
72728;SDS011;60843;52.062;4.508;2024-01-30T00:55:47;8.27;;;4.63;;
72728;SDS011;60843;52.062;4.508;2024-01-30T00:58:12;9.25;;;4.45;;
72728;SDS011;60843;52.062;4.508;2024-01-30T01:00:40;10.32;;;4.60;;
72728;SDS011;60843;52.062;4.508;2024-01-30T01:03:06;8.93;;;5.30;;
72728;SDS011;60843;52.062;4.508;2024-01-30T01:05:31;9.13;;;4.30;;
72728;SDS011;60843;52.062;4.508;2024-01-30T01:07:57;10.23;;;4.32;;
72728;SDS011;60843;52.062;4.508;2024-01-30T01:10:22;9.15;;;4.88;;
72728;SDS011;60843;52.062;4.508;2024-01-30T01:12:48;9.25;;;4.90;;
72728;SDS011;60843;52.062;4.508;2024-01-30T01:15:13;9.23;;;4.85;;
72728;SDS011;60843;52.062;4.508;2024-01-30T01:17:39;8.10;;;4.45;;
72728;SDS011;60843;52.062;4.508;2024-01-30T01:20:11;8.18;;;4.03;;
72728;SDS011;60843;52.062;4.508;2024-01-30T01:22:37;9.07;;;4.32;;
72728;SDS011;60843;52.062;4.508;2024-01-30T01:25:03;9.10;;;4.70;;
72728;SDS011;60843;52.062;4.508;2024-01-30T01:30:01;7.45;;;4.10;;
72728;SDS011;60843;52.062;4.508;2024-01-30T01:32:29;8.35;;;4.38;;
72728;SDS011;60843;52.062;4.508;2024-01-30T01:34:55;6.82;;;3.92;;
72728;SDS011;60843;52.062;4.508;2024-01-30T01:37:21;7.22;;;4.18;;
72728;SDS011;60843;52.062;4.508;2024-01-30T01:39:47;8.23;;;4.13;;
72728;SDS011;60843;52.062;4.508;2024-01-30T01:42:13;10.52;;;4.82;;
72728;SDS011;60843;52.062;4.508;2024-01-30T01:44:38;7.43;;;4.15;;
72728;SDS011;60843;52.062;4.508;2024-01-30T01:47:04;11.25;;;4.32;;
72728;SDS011;60843;52.062;4.508;2024-01-30T01:49:30;6.97;;;4.20;;
72728;SDS011;60843;52.062;4.508;2024-01-30T01:51:56;9.07;;;4.55;;
72728;SDS011;60843;52.062;4.508;2024-01-30T01:54:25;8.50;;;4.32;;
72728;SDS011;60843;52.062;4.508;2024-01-30T01:56:51;11.07;;;4.75;;
72728;SDS011;60843;52.062;4.508;2024-01-30T01:59:17;7.05;;;4.20;;
72728;SDS011;60843;52.062;4.508;2024-01-30T02:01:43;8.93;;;4.13;;
72728;SDS011;60843;52.062;4.508;2024-01-30T02:04:10;7.72;;;4.40;;
72728;SDS011;60843;52.062;4.508;2024-01-30T02:06:36;6.90;;;4.15;;
72728;SDS011;60843;52.062;4.508;2024-01-30T02:09:04;8.55;;;4.47;;
72728;SDS011;60843;52.062;4.508;2024-01-30T02:11:30;9.13;;;4.53;;
72728;SDS011;60843;52.062;4.508;2024-01-30T02:13:56;8.05;;;4.28;;
72728;SDS011;60843;52.062;4.508;2024-01-30T02:16:22;10.25;;;3.90;;
72728;SDS011;60843;52.062;4.508;2024-01-30T02:18:47;10.23;;;4.60;;
72728;SDS011;60843;52.062;4.508;2024-01-30T02:21:16;7.85;;;4.32;;
72728;SDS011;60843;52.062;4.508;2024-01-30T02:23:46;7.72;;;3.92;;
72728;SDS011;60843;52.062;4.508;2024-01-30T02:26:13;9.90;;;3.92;;
72728;SDS011;60843;52.062;4.508;2024-01-30T02:28:41;9.27;;;4.40;;
72728;SDS011;60843;52.062;4.508;2024-01-30T02:31:07;7.57;;;4.32;;
72728;SDS011;60843;52.062;4.508;2024-01-30T02:33:33;9.27;;;4.55;;
72728;SDS011;60843;52.062;4.508;2024-01-30T02:35:59;8.80;;;4.07;;
72728;SDS011;60843;52.062;4.508;2024-01-30T02:38:25;7.57;;;4.32;;
72728;SDS011;60843;52.062;4.508;2024-01-30T02:40:52;9.38;;;4.70;;
72728;SDS011;60843;52.062;4.508;2024-01-30T02:43:18;7.72;;;4.35;;
72728;SDS011;60843;52.062;4.508;2024-01-30T02:45:44;6.85;;;4.32;;
72728;SDS011;60843;52.062;4.508;2024-01-30T02:48:09;12.15;;;4.47;;
72728;SDS011;60843;52.062;4.508;2024-01-30T02:50:35;8.65;;;4.57;;
72728;SDS011;60843;52.062;4.508;2024-01-30T02:53:01;9.60;;;4.90;;
72728;SDS011;60843;52.062;4.508;2024-01-30T02:55:27;8.80;;;4.75;;
72728;SDS011;60843;52.062;4.508;2024-01-30T02:57:52;9.63;;;4.63;;
72728;SDS011;60843;52.062;4.508;2024-01-30T03:00:21;11.52;;;4.40;;
72728;SDS011;60843;52.062;4.508;2024-01-30T03:02:47;13.30;;;4.22;;
72728;SDS011;60843;52.062;4.508;2024-01-30T03:05:12;8.48;;;4.47;;
72728;SDS011;60843;52.062;4.508;2024-01-30T03:07:38;8.98;;;4.07;;
72728;SDS011;60843;52.062;4.508;2024-01-30T03:10:04;8.77;;;4.60;;
72728;SDS011;60843;52.062;4.508;2024-01-30T03:12:30;9.02;;;3.90;;
72728;SDS011;60843;52.062;4.508;2024-01-30T03:14:55;10.25;;;4.22;;
72728;SDS011;60843;52.062;4.508;2024-01-30T03:17:21;9.88;;;4.22;;
72728;SDS011;60843;52.062;4.508;2024-01-30T03:19:46;7.68;;;4.22;;
72728;SDS011;60843;52.062;4.508;2024-01-30T03:22:12;10.15;;;4.22;;
72728;SDS011;60843;52.062;4.508;2024-01-30T03:24:38;10.00;;;4.50;;
72728;SDS011;60843;52.062;4.508;2024-01-30T03:27:04;7.15;;;4.05;;
72728;SDS011;60843;52.062;4.508;2024-01-30T03:29:29;6.35;;;3.83;;
72728;SDS011;60843;52.062;4.508;2024-01-30T03:31:55;9.45;;;4.45;;
72728;SDS011;60843;52.062;4.508;2024-01-30T03:34:23;9.75;;;4.28;;
72728;SDS011;60843;52.062;4.508;2024-01-30T03:36:49;6.70;;;3.70;;
72728;SDS011;60843;52.062;4.508;2024-01-30T03:39:14;12.38;;;5.30;;
72728;SDS011;60843;52.062;4.508;2024-01-30T03:41:43;8.50;;;4.32;;
72728;SDS011;60843;52.062;4.508;2024-01-30T03:44:09;7.85;;;3.72;;
72728;SDS011;60843;52.062;4.508;2024-01-30T03:46:35;10.82;;;4.50;;
72728;SDS011;60843;52.062;4.508;2024-01-30T03:49:01;7.18;;;3.90;;
72728;SDS011;60843;52.062;4.508;2024-01-30T03:51:27;8.77;;;4.20;;
72728;SDS011;60843;52.062;4.508;2024-01-30T03:53:52;9.80;;;4.20;;
72728;SDS011;60843;52.062;4.508;2024-01-30T03:56:18;7.65;;;4.05;;
72728;SDS011;60843;52.062;4.508;2024-01-30T03:58:44;7.72;;;4.00;;
72728;SDS011;60843;52.062;4.508;2024-01-30T04:01:15;8.63;;;4.45;;
72728;SDS011;60843;52.062;4.508;2024-01-30T04:03:41;8.77;;;4.10;;
72728;SDS011;60843;52.062;4.508;2024-01-30T04:06:08;6.60;;;4.00;;
72728;SDS011;60843;52.062;4.508;2024-01-30T04:08:34;13.80;;;4.13;;
72728;SDS011;60843;52.062;4.508;2024-01-30T04:11:04;10.55;;;4.30;;
72728;SDS011;60843;52.062;4.508;2024-01-30T04:13:30;10.68;;;4.45;;
72728;SDS011;60843;52.062;4.508;2024-01-30T04:15:58;8.50;;;4.38;;
72728;SDS011;60843;52.062;4.508;2024-01-30T04:18:26;9.27;;;4.05;;
72728;SDS011;60843;52.062;4.508;2024-01-30T04:20:51;12.93;;;4.47;;
72728;SDS011;60843;52.062;4.508;2024-01-30T04:23:17;7.75;;;4.22;;
72728;SDS011;60843;52.062;4.508;2024-01-30T04:25:42;10.32;;;4.88;;
72728;SDS011;60843;52.062;4.508;2024-01-30T04:28:07;10.33;;;3.93;;
72728;SDS011;60843;52.062;4.508;2024-01-30T04:30:33;7.63;;;4.53;;
72728;SDS011;60843;52.062;4.508;2024-01-30T04:32:58;9.80;;;4.30;;
72728;SDS011;60843;52.062;4.508;2024-01-30T04:35:23;7.50;;;4.20;;
72728;SDS011;60843;52.062;4.508;2024-01-30T04:37:51;9.68;;;4.53;;
72728;SDS011;60843;52.062;4.508;2024-01-30T04:40:17;9.07;;;4.43;;
72728;SDS011;60843;52.062;4.508;2024-01-30T04:42:42;9.00;;;4.72;;
72728;SDS011;60843;52.062;4.508;2024-01-30T04:45:08;7.35;;;3.90;;
72728;SDS011;60843;52.062;4.508;2024-01-30T04:47:34;7.65;;;3.67;;
72728;SDS011;60843;52.062;4.508;2024-01-30T04:50:00;8.05;;;3.88;;
72728;SDS011;60843;52.062;4.508;2024-01-30T04:52:26;8.20;;;4.00;;
72728;SDS011;60843;52.062;4.508;2024-01-30T04:54:51;10.07;;;4.40;;
72728;SDS011;60843;52.062;4.508;2024-01-30T04:57:17;10.70;;;3.70;;
72728;SDS011;60843;52.062;4.508;2024-01-30T04:59:42;7.70;;;3.83;;
72728;SDS011;60843;52.062;4.508;2024-01-30T05:02:07;7.82;;;4.20;;
72728;SDS011;60843;52.062;4.508;2024-01-30T05:04:33;7.40;;;4.38;;
72728;SDS011;60843;52.062;4.508;2024-01-30T05:06:59;7.28;;;3.70;;
72728;SDS011;60843;52.062;4.508;2024-01-30T05:09:24;7.18;;;3.88;;
72728;SDS011;60843;52.062;4.508;2024-01-30T05:11:49;7.35;;;4.18;;
72728;SDS011;60843;52.062;4.508;2024-01-30T05:14:15;7.60;;;4.45;;
72728;SDS011;60843;52.062;4.508;2024-01-30T05:16:41;9.35;;;4.25;;
72728;SDS011;60843;52.062;4.508;2024-01-30T05:19:08;10.07;;;4.28;;
72728;SDS011;60843;52.062;4.508;2024-01-30T05:21:33;8.65;;;3.58;;
72728;SDS011;60843;52.062;4.508;2024-01-30T05:23:59;7.38;;;3.72;;
72728;SDS011;60843;52.062;4.508;2024-01-30T05:26:24;6.95;;;3.95;;
72728;SDS011;60843;52.062;4.508;2024-01-30T05:28:50;9.60;;;4.38;;
72728;SDS011;60843;52.062;4.508;2024-01-30T05:31:15;8.85;;;4.15;;
72728;SDS011;60843;52.062;4.508;2024-01-30T05:33:40;9.23;;;4.72;;
72728;SDS011;60843;52.062;4.508;2024-01-30T05:36:06;8.83;;;4.20;;
72728;SDS011;60843;52.062;4.508;2024-01-30T05:38:32;9.93;;;4.32;;
72728;SDS011;60843;52.062;4.508;2024-01-30T05:40:57;7.15;;;3.78;;
72728;SDS011;60843;52.062;4.508;2024-01-30T05:43:23;7.85;;;4.13;;
72728;SDS011;60843;52.062;4.508;2024-01-30T05:45:49;8.48;;;4.18;;
72728;SDS011;60843;52.062;4.508;2024-01-30T05:48:15;8.45;;;4.30;;
72728;SDS011;60843;52.062;4.508;2024-01-30T05:50:40;9.73;;;4.47;;
72728;SDS011;60843;52.062;4.508;2024-01-30T05:53:06;10.48;;;4.43;;
72728;SDS011;60843;52.062;4.508;2024-01-30T05:55:31;7.90;;;4.07;;
72728;SDS011;60843;52.062;4.508;2024-01-30T05:57:56;8.67;;;4.03;;
72728;SDS011;60843;52.062;4.508;2024-01-30T06:00:22;8.27;;;3.90;;
72728;SDS011;60843;52.062;4.508;2024-01-30T06:02:47;11.82;;;4.72;;
72728;SDS011;60843;52.062;4.508;2024-01-30T06:05:12;8.10;;;4.23;;
72728;SDS011;60843;52.062;4.508;2024-01-30T06:07:38;6.95;;;4.00;;
72728;SDS011;60843;52.062;4.508;2024-01-30T06:10:03;7.83;;;3.63;;
72728;SDS011;60843;52.062;4.508;2024-01-30T06:12:29;9.07;;;3.88;;
72728;SDS011;60843;52.062;4.508;2024-01-30T06:14:55;8.98;;;3.80;;
72728;SDS011;60843;52.062;4.508;2024-01-30T06:17:22;7.22;;;3.70;;
72728;SDS011;60843;52.062;4.508;2024-01-30T06:19:47;10.38;;;4.45;;
72728;SDS011;60843;52.062;4.508;2024-01-30T06:22:13;7.75;;;4.10;;
72728;SDS011;60843;52.062;4.508;2024-01-30T06:24:38;9.48;;;4.28;;
72728;SDS011;60843;52.062;4.508;2024-01-30T06:27:04;6.97;;;4.15;;
72728;SDS011;60843;52.062;4.508;2024-01-30T06:29:29;10.77;;;4.13;;
72728;SDS011;60843;52.062;4.508;2024-01-30T06:31:55;7.10;;;3.97;;
72728;SDS011;60843;52.062;4.508;2024-01-30T06:34:21;8.07;;;3.88;;
72728;SDS011;60843;52.062;4.508;2024-01-30T06:36:46;9.15;;;4.15;;
72728;SDS011;60843;52.062;4.508;2024-01-30T06:39:11;9.70;;;4.37;;
72728;SDS011;60843;52.062;4.508;2024-01-30T06:41:37;8.88;;;4.38;;
72728;SDS011;60843;52.062;4.508;2024-01-30T06:44:02;7.88;;;3.92;;
72728;SDS011;60843;52.062;4.508;2024-01-30T06:46:29;9.68;;;4.53;;
72728;SDS011;60843;52.062;4.508;2024-01-30T06:48:54;8.45;;;3.67;;
72728;SDS011;60843;52.062;4.508;2024-01-30T06:51:19;12.53;;;4.57;;
72728;SDS011;60843;52.062;4.508;2024-01-30T06:53:45;11.07;;;4.25;;
72728;SDS011;60843;52.062;4.508;2024-01-30T06:56:10;8.32;;;4.40;;
72728;SDS011;60843;52.062;4.508;2024-01-30T06:58:36;7.00;;;3.90;;
72728;SDS011;60843;52.062;4.508;2024-01-30T07:01:01;10.53;;;4.53;;
72728;SDS011;60843;52.062;4.508;2024-01-30T07:03:27;8.55;;;3.58;;
72728;SDS011;60843;52.062;4.508;2024-01-30T07:05:52;15.10;;;8.00;;
72728;SDS011;60843;52.062;4.508;2024-01-30T07:08:17;8.10;;;3.90;;
72728;SDS011;60843;52.062;4.508;2024-01-30T07:10:43;10.35;;;4.22;;
72728;SDS011;60843;52.062;4.508;2024-01-30T07:13:09;8.65;;;4.00;;
72728;SDS011;60843;52.062;4.508;2024-01-30T07:15:35;8.40;;;3.63;;
72728;SDS011;60843;52.062;4.508;2024-01-30T07:18:02;11.02;;;4.25;;
72728;SDS011;60843;52.062;4.508;2024-01-30T07:20:27;9.98;;;4.45;;
72728;SDS011;60843;52.062;4.508;2024-01-30T07:22:53;7.93;;;4.32;;
72728;SDS011;60843;52.062;4.508;2024-01-30T07:25:18;8.57;;;3.80;;
72728;SDS011;60843;52.062;4.508;2024-01-30T07:27:43;12.10;;;4.17;;
72728;SDS011;60843;52.062;4.508;2024-01-30T07:30:09;6.37;;;3.63;;
72728;SDS011;60843;52.062;4.508;2024-01-30T07:32:34;8.20;;;4.32;;
72728;SDS011;60843;52.062;4.508;2024-01-30T07:35:00;7.43;;;3.65;;
72728;SDS011;60843;52.062;4.508;2024-01-30T07:37:25;12.50;;;4.17;;
72728;SDS011;60843;52.062;4.508;2024-01-30T07:39:50;8.73;;;4.20;;
72728;SDS011;60843;52.062;4.508;2024-01-30T07:42:16;10.37;;;4.10;;
72728;SDS011;60843;52.062;4.508;2024-01-30T07:44:42;9.85;;;4.65;;
72728;SDS011;60843;52.062;4.508;2024-01-30T07:47:08;9.27;;;4.53;;
72728;SDS011;60843;52.062;4.508;2024-01-30T07:49:34;10.00;;;4.15;;
72728;SDS011;60843;52.062;4.508;2024-01-30T07:51:59;9.25;;;3.92;;
72728;SDS011;60843;52.062;4.508;2024-01-30T07:54:25;10.93;;;4.40;;
72728;SDS011;60843;52.062;4.508;2024-01-30T07:56:50;10.77;;;4.90;;
72728;SDS011;60843;52.062;4.508;2024-01-30T07:59:16;11.18;;;4.65;;
72728;SDS011;60843;52.062;4.508;2024-01-30T08:01:41;12.52;;;4.20;;
72728;SDS011;60843;52.062;4.508;2024-01-30T08:04:07;8.63;;;3.97;;
72728;SDS011;60843;52.062;4.508;2024-01-30T08:06:32;13.38;;;5.35;;
72728;SDS011;60843;52.062;4.508;2024-01-30T08:08:58;16.20;;;4.38;;
72728;SDS011;60843;52.062;4.508;2024-01-30T08:11:24;11.02;;;4.18;;
72728;SDS011;60843;52.062;4.508;2024-01-30T08:13:52;13.95;;;4.47;;
72728;SDS011;60843;52.062;4.508;2024-01-30T08:16:17;10.77;;;4.35;;
72728;SDS011;60843;52.062;4.508;2024-01-30T08:18:43;12.63;;;4.80;;
72728;SDS011;60843;52.062;4.508;2024-01-30T08:21:08;8.60;;;4.63;;
72728;SDS011;60843;52.062;4.508;2024-01-30T08:23:34;10.45;;;4.45;;
72728;SDS011;60843;52.062;4.508;2024-01-30T08:25:59;10.35;;;5.03;;
72728;SDS011;60843;52.062;4.508;2024-01-30T08:28:25;12.70;;;4.67;;
72728;SDS011;60843;52.062;4.508;2024-01-30T08:30:52;12.40;;;4.25;;
72728;SDS011;60843;52.062;4.508;2024-01-30T08:33:18;15.50;;;4.97;;
72728;SDS011;60843;52.062;4.508;2024-01-30T08:35:43;12.68;;;4.45;;
72728;SDS011;60843;52.062;4.508;2024-01-30T08:38:09;9.60;;;5.13;;
72728;SDS011;60843;52.062;4.508;2024-01-30T08:40:34;10.70;;;5.40;;
72728;SDS011;60843;52.062;4.508;2024-01-30T08:43:00;12.25;;;4.28;;
72728;SDS011;60843;52.062;4.508;2024-01-30T08:45:25;13.00;;;4.70;;
72728;SDS011;60843;52.062;4.508;2024-01-30T08:47:51;12.93;;;4.35;;
72728;SDS011;60843;52.062;4.508;2024-01-30T08:50:16;10.52;;;4.68;;
72728;SDS011;60843;52.062;4.508;2024-01-30T08:52:42;9.27;;;4.68;;
72728;SDS011;60843;52.062;4.508;2024-01-30T08:55:07;7.30;;;5.00;;
72728;SDS011;60843;52.062;4.508;2024-01-30T08:57:33;11.70;;;4.45;;
72728;SDS011;60843;52.062;4.508;2024-01-30T08:59:58;9.93;;;4.40;;
72728;SDS011;60843;52.062;4.508;2024-01-30T09:02:23;9.43;;;5.03;;
72728;SDS011;60843;52.062;4.508;2024-01-30T09:04:49;8.53;;;4.20;;
72728;SDS011;60843;52.062;4.508;2024-01-30T09:07:14;8.82;;;4.70;;
72728;SDS011;60843;52.062;4.508;2024-01-30T09:09:41;9.18;;;4.68;;
72728;SDS011;60843;52.062;4.508;2024-01-30T09:12:07;11.43;;;3.47;;
72728;SDS011;60843;52.062;4.508;2024-01-30T09:14:34;8.23;;;3.75;;
72728;SDS011;60843;52.062;4.508;2024-01-30T09:17:00;6.75;;;2.58;;
72728;SDS011;60843;52.062;4.508;2024-01-30T09:19:26;10.48;;;3.45;;
72728;SDS011;60843;52.062;4.508;2024-01-30T09:21:51;6.05;;;2.47;;
72728;SDS011;60843;52.062;4.508;2024-01-30T09:24:17;7.70;;;3.17;;
72728;SDS011;60843;52.062;4.508;2024-01-30T09:26:42;6.55;;;3.17;;
72728;SDS011;60843;52.062;4.508;2024-01-30T09:29:07;5.00;;;2.47;;
72728;SDS011;60843;52.062;4.508;2024-01-30T09:31:33;5.70;;;2.97;;
72728;SDS011;60843;52.062;4.508;2024-01-30T09:33:58;8.38;;;3.50;;
72728;SDS011;60843;52.062;4.508;2024-01-30T09:36:24;8.45;;;2.33;;
72728;SDS011;60843;52.062;4.508;2024-01-30T09:38:49;6.97;;;3.58;;
72728;SDS011;60843;52.062;4.508;2024-01-30T09:41:15;5.90;;;2.53;;
72728;SDS011;60843;52.062;4.508;2024-01-30T09:43:40;10.25;;;3.22;;
72728;SDS011;60843;52.062;4.508;2024-01-30T09:46:07;6.28;;;2.00;;
72728;SDS011;60843;52.062;4.508;2024-01-30T09:48:38;8.55;;;2.45;;
72728;SDS011;60843;52.062;4.508;2024-01-30T09:51:04;4.97;;;1.33;;
72728;SDS011;60843;52.062;4.508;2024-01-30T09:53:34;4.85;;;1.35;;
72728;SDS011;60843;52.062;4.508;2024-01-30T09:56:01;3.80;;;1.08;;
72728;SDS011;60843;52.062;4.508;2024-01-30T09:58:27;4.30;;;1.13;;
72728;SDS011;60843;52.062;4.508;2024-01-30T10:00:53;2.70;;;1.00;;
72728;SDS011;60843;52.062;4.508;2024-01-30T10:03:20;4.85;;;1.00;;
72728;SDS011;60843;52.062;4.508;2024-01-30T10:05:50;4.38;;;1.15;;
72728;SDS011;60843;52.062;4.508;2024-01-30T10:08:17;5.32;;;0.93;;
72728;SDS011;60843;52.062;4.508;2024-01-30T10:10:45;2.53;;;0.63;;
72728;SDS011;60843;52.062;4.508;2024-01-30T10:13:11;9.80;;;2.28;;
72728;SDS011;60843;52.062;4.508;2024-01-30T10:15:37;2.90;;;0.90;;
72728;SDS011;60843;52.062;4.508;2024-01-30T10:18:04;3.80;;;1.35;;
72728;SDS011;60843;52.062;4.508;2024-01-30T10:20:31;1.58;;;0.47;;
72728;SDS011;60843;52.062;4.508;2024-01-30T10:22:57;6.70;;;1.05;;
72728;SDS011;60843;52.062;4.508;2024-01-30T10:25:23;2.13;;;0.63;;
72728;SDS011;60843;52.062;4.508;2024-01-30T10:27:52;1.30;;;0.50;;
72728;SDS011;60843;52.062;4.508;2024-01-30T10:30:19;4.30;;;0.88;;
72728;SDS011;60843;52.062;4.508;2024-01-30T10:32:45;4.28;;;0.75;;
72728;SDS011;60843;52.062;4.508;2024-01-30T10:35:10;1.52;;;0.40;;
72728;SDS011;60843;52.062;4.508;2024-01-30T10:37:35;0.82;;;0.55;;
72728;SDS011;60843;52.062;4.508;2024-01-30T10:40:02;0.53;;;0.20;;
72728;SDS011;60843;52.062;4.508;2024-01-30T10:42:31;2.05;;;0.57;;
72728;SDS011;60843;52.062;4.508;2024-01-30T10:45:00;3.90;;;0.70;;
72728;SDS011;60843;52.062;4.508;2024-01-30T10:47:34;3.03;;;0.60;;
72728;SDS011;60843;52.062;4.508;2024-01-30T10:50:03;2.58;;;0.40;;
72728;SDS011;60843;52.062;4.508;2024-01-30T10:52:29;2.83;;;0.50;;
72728;SDS011;60843;52.062;4.508;2024-01-30T10:54:55;1.58;;;0.45;;
72728;SDS011;60843;52.062;4.508;2024-01-30T10:57:24;2.97;;;0.90;;
72728;SDS011;60843;52.062;4.508;2024-01-30T10:59:54;1.98;;;0.40;;
72728;SDS011;60843;52.062;4.508;2024-01-30T11:02:25;4.80;;;0.52;;
72728;SDS011;60843;52.062;4.508;2024-01-30T11:04:55;1.88;;;0.47;;
72728;SDS011;60843;52.062;4.508;2024-01-30T11:07:26;3.17;;;0.63;;
72728;SDS011;60843;52.062;4.508;2024-01-30T11:09:53;4.05;;;0.70;;
72728;SDS011;60843;52.062;4.508;2024-01-30T11:12:28;4.70;;;0.55;;
72728;SDS011;60843;52.062;4.508;2024-01-30T11:15:04;3.20;;;0.73;;
72728;SDS011;60843;52.062;4.508;2024-01-30T11:20:25;3.15;;;0.52;;
72728;SDS011;60843;52.062;4.508;2024-01-30T11:22:53;9.30;;;1.23;;
72728;SDS011;60843;52.062;4.508;2024-01-30T11:25:20;4.85;;;0.22;;
72728;SDS011;60843;52.062;4.508;2024-01-30T11:27:47;5.25;;;0.88;;
72728;SDS011;60843;52.062;4.508;2024-01-30T11:30:24;2.10;;;0.50;;
72728;SDS011;60843;52.062;4.508;2024-01-30T11:33:09;5.55;;;0.90;;
72728;SDS011;60843;52.062;4.508;2024-01-30T11:35:42;2.17;;;0.70;;
72728;SDS011;60843;52.062;4.508;2024-01-30T11:38:09;4.10;;;0.73;;
72728;SDS011;60843;52.062;4.508;2024-01-30T11:40:44;4.75;;;1.00;;
72728;SDS011;60843;52.062;4.508;2024-01-30T11:43:09;1.77;;;0.60;;
72728;SDS011;60843;52.062;4.508;2024-01-30T11:45:35;3.97;;;0.80;;
72728;SDS011;60843;52.062;4.508;2024-01-30T11:48:01;4.78;;;0.60;;
72728;SDS011;60843;52.062;4.508;2024-01-30T11:50:33;6.00;;;0.73;;
72728;SDS011;60843;52.062;4.508;2024-01-30T11:52:59;4.13;;;0.98;;
72728;SDS011;60843;52.062;4.508;2024-01-30T11:55:25;3.78;;;0.85;;
72728;SDS011;60843;52.062;4.508;2024-01-30T11:57:50;4.53;;;0.82;;
72728;SDS011;60843;52.062;4.508;2024-01-30T12:00:17;2.88;;;0.57;;
72728;SDS011;60843;52.062;4.508;2024-01-30T12:03:01;5.28;;;0.73;;
72728;SDS011;60843;52.062;4.508;2024-01-30T12:05:28;5.95;;;0.73;;
72728;SDS011;60843;52.062;4.508;2024-01-30T12:07:54;3.60;;;0.57;;
72728;SDS011;60843;52.062;4.508;2024-01-30T12:10:21;3.55;;;0.70;;
72728;SDS011;60843;52.062;4.508;2024-01-30T12:12:48;4.95;;;0.60;;
72728;SDS011;60843;52.062;4.508;2024-01-30T12:15:14;2.75;;;0.95;;
72728;SDS011;60843;52.062;4.508;2024-01-30T12:17:43;1.45;;;0.50;;
72728;SDS011;60843;52.062;4.508;2024-01-30T12:20:10;1.90;;;0.60;;
72728;SDS011;60843;52.062;4.508;2024-01-30T12:22:40;7.22;;;1.40;;
72728;SDS011;60843;52.062;4.508;2024-01-30T12:25:09;4.05;;;0.90;;
72728;SDS011;60843;52.062;4.508;2024-01-30T12:27:39;6.68;;;1.30;;
72728;SDS011;60843;52.062;4.508;2024-01-30T12:30:08;0.88;;;0.43;;
72728;SDS011;60843;52.062;4.508;2024-01-30T12:32:35;5.65;;;1.17;;
72728;SDS011;60843;52.062;4.508;2024-01-30T12:35:01;6.88;;;0.95;;
72728;SDS011;60843;52.062;4.508;2024-01-30T12:37:27;6.25;;;0.80;;
72728;SDS011;60843;52.062;4.508;2024-01-30T12:39:54;7.88;;;0.93;;
72728;SDS011;60843;52.062;4.508;2024-01-30T12:42:20;3.85;;;1.58;;
72728;SDS011;60843;52.062;4.508;2024-01-30T12:44:48;5.28;;;0.93;;
72728;SDS011;60843;52.062;4.508;2024-01-30T12:47:15;11.13;;;1.17;;
72728;SDS011;60843;52.062;4.508;2024-01-30T12:49:43;2.25;;;0.80;;
72728;SDS011;60843;52.062;4.508;2024-01-30T12:52:10;9.05;;;1.42;;
72728;SDS011;60843;52.062;4.508;2024-01-30T12:54:36;1.80;;;0.93;;
72728;SDS011;60843;52.062;4.508;2024-01-30T12:57:02;6.35;;;1.25;;
72728;SDS011;60843;52.062;4.508;2024-01-30T12:59:30;3.05;;;0.85;;
72728;SDS011;60843;52.062;4.508;2024-01-30T13:01:55;4.90;;;0.70;;
72728;SDS011;60843;52.062;4.508;2024-01-30T13:04:21;6.50;;;1.10;;
72728;SDS011;60843;52.062;4.508;2024-01-30T13:06:47;4.47;;;1.20;;
72728;SDS011;60843;52.062;4.508;2024-01-30T13:09:12;7.77;;;0.70;;
72728;SDS011;60843;52.062;4.508;2024-01-30T13:11:38;1.23;;;0.65;;
72728;SDS011;60843;52.062;4.508;2024-01-30T13:14:03;2.93;;;0.83;;
72728;SDS011;60843;52.062;4.508;2024-01-30T13:16:28;5.10;;;0.70;;
72728;SDS011;60843;52.062;4.508;2024-01-30T13:18:54;6.03;;;0.90;;
72728;SDS011;60843;52.062;4.508;2024-01-30T13:21:20;8.77;;;1.40;;
72728;SDS011;60843;52.062;4.508;2024-01-30T13:23:46;5.78;;;0.93;;
72728;SDS011;60843;52.062;4.508;2024-01-30T13:26:11;4.57;;;0.80;;
72728;SDS011;60843;52.062;4.508;2024-01-30T13:28:37;3.90;;;1.02;;
72728;SDS011;60843;52.062;4.508;2024-01-30T13:31:03;2.17;;;0.80;;
72728;SDS011;60843;52.062;4.508;2024-01-30T13:33:28;2.58;;;0.52;;
72728;SDS011;60843;52.062;4.508;2024-01-30T13:35:53;2.88;;;1.20;;
72728;SDS011;60843;52.062;4.508;2024-01-30T13:38:19;3.33;;;1.00;;
72728;SDS011;60843;52.062;4.508;2024-01-30T13:40:44;2.03;;;0.93;;
72728;SDS011;60843;52.062;4.508;2024-01-30T13:43:10;2.63;;;1.00;;
72728;SDS011;60843;52.062;4.508;2024-01-30T13:45:35;2.85;;;1.23;;
72728;SDS011;60843;52.062;4.508;2024-01-30T13:48:01;5.72;;;1.67;;
72728;SDS011;60843;52.062;4.508;2024-01-30T13:50:28;4.28;;;1.50;;
72728;SDS011;60843;52.062;4.508;2024-01-30T13:52:53;1.02;;;0.88;;
72728;SDS011;60843;52.062;4.508;2024-01-30T13:55:19;2.20;;;1.17;;
72728;SDS011;60843;52.062;4.508;2024-01-30T13:57:44;4.47;;;1.95;;
72728;SDS011;60843;52.062;4.508;2024-01-30T14:00:10;5.72;;;2.67;;
72728;SDS011;60843;52.062;4.508;2024-01-30T14:02:36;6.03;;;3.08;;
72728;SDS011;60843;52.062;4.508;2024-01-30T14:05:01;6.95;;;3.20;;
72728;SDS011;60843;52.062;4.508;2024-01-30T14:07:26;5.93;;;2.60;;
72728;SDS011;60843;52.062;4.508;2024-01-30T14:09:52;3.83;;;2.20;;
72728;SDS011;60843;52.062;4.508;2024-01-30T14:12:17;12.03;;;1.93;;
72728;SDS011;60843;52.062;4.508;2024-01-30T14:14:43;5.23;;;1.40;;
72728;SDS011;60843;52.062;4.508;2024-01-30T14:17:08;5.33;;;1.93;;
72728;SDS011;60843;52.062;4.508;2024-01-30T14:19:34;7.53;;;2.70;;
72728;SDS011;60843;52.062;4.508;2024-01-30T14:22:00;4.13;;;2.25;;
72728;SDS011;60843;52.062;4.508;2024-01-30T14:24:26;2.80;;;1.93;;
72728;SDS011;60843;52.062;4.508;2024-01-30T14:26:52;4.33;;;2.30;;
72728;SDS011;60843;52.062;4.508;2024-01-30T14:29:17;5.15;;;2.10;;
72728;SDS011;60843;52.062;4.508;2024-01-30T14:31:43;4.23;;;1.87;;
72728;SDS011;60843;52.062;4.508;2024-01-30T14:34:08;3.92;;;1.73;;
72728;SDS011;60843;52.062;4.508;2024-01-30T14:36:38;3.92;;;1.70;;
72728;SDS011;60843;52.062;4.508;2024-01-30T14:39:04;3.65;;;1.52;;
72728;SDS011;60843;52.062;4.508;2024-01-30T14:41:31;1.38;;;0.75;;
72728;SDS011;60843;52.062;4.508;2024-01-30T14:43:57;5.63;;;2.35;;
72728;SDS011;60843;52.062;4.508;2024-01-30T14:46:22;3.17;;;2.10;;